createdAt,value
2023-04-11T00:01:50.171Z,18.42
2023-04-11T00:04:20.630Z,16.30
2023-04-11T00:06:48.728Z,19.85
2023-04-11T00:09:17.120Z,18.50
2023-04-11T00:11:44.682Z,17.40
2023-04-11T00:14:12.711Z,17.60
2023-04-11T00:16:41.478Z,18.63
2023-04-11T00:19:11.771Z,14.55
2023-04-11T00:21:44.188Z,15.35
2023-04-11T00:24:11.610Z,15.25
2023-04-11T00:26:38.973Z,17.85
2023-04-11T00:29:06.377Z,16.67
2023-04-11T00:31:33.724Z,16.25
2023-04-11T00:34:01.166Z,15.90
2023-04-11T00:36:28.616Z,17.17
2023-04-11T00:38:58.377Z,19.13
2023-04-11T00:41:26.414Z,16.65
2023-04-11T00:43:54.323Z,16.58
2023-04-11T00:46:22.059Z,15.57
2023-04-11T00:48:49.838Z,16.02
2023-04-11T00:51:18.820Z,15.50
2023-04-11T00:53:46.918Z,17.27
2023-04-11T00:56:14.613Z,15.60
2023-04-11T00:58:42.279Z,19.83
2023-04-11T01:01:09.891Z,18.90
2023-04-11T01:03:39.482Z,16.13
2023-04-11T01:06:09.288Z,18.10
2023-04-11T01:08:38.192Z,16.30
2023-04-11T01:11:06.246Z,16.45
2023-04-11T01:13:35.892Z,16.27
2023-04-11T01:16:04.169Z,20.83
2023-04-11T01:18:31.656Z,20.17
2023-04-11T01:21:00.517Z,25.63
2023-04-11T01:23:28.851Z,16.20
2023-04-11T01:25:56.276Z,17.85
2023-04-11T01:28:23.737Z,17.65
2023-04-11T01:30:51.498Z,18.45
2023-04-11T01:33:19.153Z,17.77
2023-04-11T01:35:46.676Z,22.20
2023-04-11T01:38:14.104Z,18.30
2023-04-11T01:40:42.166Z,15.43
2023-04-11T01:43:10.018Z,15.70
2023-04-11T01:45:38.499Z,14.77
2023-04-11T01:48:07.476Z,12.40
2023-04-11T01:50:34.956Z,12.63
2023-04-11T01:53:02.503Z,12.88
2023-04-11T01:55:30.428Z,15.70
2023-04-11T01:57:57.809Z,12.38
2023-04-11T02:00:25.344Z,12.80
2023-04-11T02:02:52.965Z,14.38
2023-04-11T02:05:20.735Z,11.70
2023-04-11T02:07:48.109Z,12.32
2023-04-11T02:10:18.682Z,11.30
2023-04-11T02:12:46.209Z,10.63
2023-04-11T02:15:13.604Z,13.77
2023-04-11T02:17:45.607Z,11.07
2023-04-11T02:20:14.417Z,11.52
2023-04-11T02:22:42.043Z,12.35
2023-04-11T02:25:09.685Z,11.80
2023-04-11T02:27:37.183Z,11.55
2023-04-11T02:30:06.219Z,11.88
2023-04-11T02:32:35.289Z,12.13
2023-04-11T02:35:02.746Z,10.63
2023-04-11T02:37:30.629Z,11.07
2023-04-11T02:39:58.544Z,11.13
2023-04-11T02:42:25.883Z,9.65
2023-04-11T02:44:57.174Z,11.13
2023-04-11T02:47:28.100Z,10.95
2023-04-11T02:49:59.782Z,10.43
2023-04-11T02:55:01.170Z,9.75
2023-04-11T02:57:28.649Z,9.70
2023-04-11T02:59:56.923Z,10.68
2023-04-11T03:02:31.502Z,12.10
2023-04-11T03:05:04.158Z,12.38
2023-04-11T03:07:34.571Z,10.52
2023-04-11T03:10:02.003Z,12.23
2023-04-11T03:12:29.429Z,9.50
2023-04-11T03:15:01.199Z,12.13
2023-04-11T03:17:28.676Z,10.65
2023-04-11T03:19:56.208Z,10.18
2023-04-11T03:22:24.647Z,10.93
2023-04-11T03:24:52.064Z,10.70
2023-04-11T03:27:22.568Z,11.80
2023-04-11T03:29:55.108Z,9.63
2023-04-11T03:32:32.535Z,10.52
2023-04-11T03:35:01.936Z,11.63
2023-04-11T03:37:29.511Z,9.63
2023-04-11T03:39:56.992Z,10.07
2023-04-11T03:42:24.530Z,11.38
2023-04-11T03:47:25.892Z,11.82
2023-04-11T03:49:53.321Z,13.07
2023-04-11T03:52:21.072Z,14.13
2023-04-11T03:54:49.613Z,12.32
2023-04-11T03:57:17.712Z,11.00
2023-04-11T03:59:47.810Z,12.57
2023-04-11T04:02:16.278Z,13.55
2023-04-11T04:04:54.954Z,8.68
2023-04-11T04:07:35.368Z,10.90
2023-04-11T04:10:10.895Z,11.68
2023-04-11T04:12:40.630Z,12.43
2023-04-11T04:15:21.409Z,11.88
2023-04-11T04:17:50.467Z,14.20
2023-04-11T04:20:25.288Z,13.77
2023-04-11T04:22:56.719Z,9.60
2023-04-11T04:25:33.563Z,12.77
2023-04-11T04:28:01.077Z,15.40
2023-04-11T04:30:38.175Z,10.48
2023-04-11T04:33:12.548Z,10.55
2023-04-11T04:35:45.239Z,8.95
2023-04-11T04:38:17.838Z,14.00
2023-04-11T04:40:50.795Z,12.27
2023-04-11T04:43:23.109Z,14.35
2023-04-11T04:46:16.876Z,15.70
2023-04-11T04:48:50.444Z,15.27
2023-04-11T04:51:18.237Z,12.50
2023-04-11T04:53:46.316Z,12.80
2023-04-11T04:56:13.780Z,14.73
2023-04-11T04:58:47.295Z,13.17
2023-04-11T05:01:17.111Z,11.90
2023-04-11T05:03:50.865Z,11.20
2023-04-11T05:06:34.069Z,16.30
2023-04-11T05:09:05.888Z,14.45
2023-04-11T05:11:34.093Z,11.10
2023-04-11T05:14:01.635Z,15.07
2023-04-11T05:16:29.319Z,12.73
2023-04-11T05:18:57.572Z,14.52
2023-04-11T05:21:25.092Z,12.80
2023-04-11T05:23:53.544Z,19.02
2023-04-11T05:26:21.488Z,12.65
2023-04-11T05:28:48.980Z,15.98
2023-04-11T05:31:19.616Z,12.55
2023-04-11T05:33:47.452Z,12.23
2023-04-11T05:36:14.848Z,13.88
2023-04-11T05:38:43.324Z,14.98
2023-04-11T05:41:11.791Z,17.27
2023-04-11T05:43:39.245Z,12.95
2023-04-11T05:46:07.932Z,13.85
2023-04-11T05:48:36.253Z,16.73
2023-04-11T05:51:03.673Z,11.98
2023-04-11T05:53:31.938Z,13.52
2023-04-11T05:55:59.405Z,13.02
2023-04-11T05:58:27.056Z,14.68
2023-04-11T06:00:54.658Z,12.77
2023-04-11T06:03:22.226Z,21.83
2023-04-11T06:05:49.745Z,22.55
2023-04-11T06:08:17.980Z,17.25
2023-04-11T06:10:45.573Z,14.90
2023-04-11T06:13:12.978Z,13.57
2023-04-11T06:15:40.565Z,13.82
2023-04-11T06:18:07.994Z,11.93
2023-04-11T06:20:35.445Z,13.50
2023-04-11T06:23:02.995Z,12.85
2023-04-11T06:25:30.451Z,14.05
2023-04-11T06:27:57.797Z,13.65
2023-04-11T06:30:25.371Z,11.38
2023-04-11T06:32:52.929Z,14.93
2023-04-11T06:35:24.750Z,23.95
2023-04-11T06:37:52.384Z,15.10
2023-04-11T06:40:21.210Z,13.85
2023-04-11T06:42:48.650Z,12.30
2023-04-11T06:45:16.304Z,17.00
2023-04-11T06:47:43.823Z,14.25
2023-04-11T06:50:11.533Z,18.20
2023-04-11T06:52:38.939Z,18.15
2023-04-11T06:55:07.231Z,14.88
2023-04-11T06:57:34.964Z,17.33
2023-04-11T07:00:02.959Z,15.55
2023-04-11T07:02:32.261Z,14.73
2023-04-11T07:04:59.878Z,10.82
2023-04-11T07:07:27.555Z,13.77
2023-04-11T07:09:54.906Z,9.70
2023-04-11T07:12:22.333Z,12.68
2023-04-11T07:14:49.718Z,8.95
2023-04-11T07:17:17.492Z,11.93
2023-04-11T07:19:44.732Z,10.35
2023-04-11T07:22:12.141Z,12.45
2023-04-11T07:24:39.548Z,10.55
2023-04-11T07:27:06.986Z,8.50
2023-04-11T07:29:34.379Z,8.20
2023-04-11T07:32:01.720Z,10.55
2023-04-11T07:34:29.167Z,10.13
2023-04-11T07:37:00.998Z,7.75
2023-04-11T07:39:28.541Z,9.80
2023-04-11T07:41:56.826Z,9.80
2023-04-11T07:44:24.257Z,10.85
2023-04-11T07:46:51.564Z,10.50
2023-04-11T07:49:18.930Z,10.45
2023-04-11T07:51:46.307Z,9.07
2023-04-11T07:54:13.661Z,10.60
2023-04-11T07:56:41.009Z,9.75
2023-04-11T07:59:08.452Z,10.75
2023-04-11T08:01:36.090Z,11.70
2023-04-11T08:04:04.006Z,11.98
2023-04-11T08:06:31.937Z,11.73
2023-04-11T08:09:00.911Z,9.60
2023-04-11T08:11:28.460Z,10.57
2023-04-11T08:13:56.050Z,12.95
2023-04-11T08:16:23.663Z,11.88
2023-04-11T08:18:51.012Z,14.68
2023-04-11T08:21:18.531Z,14.43
2023-04-11T08:23:47.401Z,12.75
2023-04-11T08:26:15.033Z,10.77
2023-04-11T08:28:43.554Z,14.40
2023-04-11T08:31:13.443Z,13.13
2023-04-11T08:33:41.246Z,12.07
2023-04-11T08:36:10.263Z,11.73
2023-04-11T08:38:39.680Z,11.77
2023-04-11T08:41:07.540Z,14.23
2023-04-11T08:43:36.019Z,10.90
2023-04-11T08:46:07.990Z,11.00
2023-04-11T08:48:36.118Z,11.23
2023-04-11T08:51:03.611Z,11.75
2023-04-11T08:53:31.988Z,11.77
2023-04-11T08:55:59.964Z,17.73
2023-04-11T08:58:27.437Z,13.82
2023-04-11T09:00:54.893Z,12.80
2023-04-11T09:03:22.427Z,12.10
2023-04-11T09:05:50.010Z,11.60
2023-04-11T09:08:19.330Z,12.82
2023-04-11T09:10:47.011Z,12.50
2023-04-11T09:13:22.855Z,14.02
2023-04-11T09:16:06.753Z,14.80
2023-04-11T09:18:42.632Z,11.63
2023-04-11T09:21:15.748Z,15.52
2023-04-11T09:23:43.631Z,10.30
2023-04-11T09:26:12.678Z,12.95
2023-04-11T09:28:45.871Z,14.60
2023-04-11T09:31:13.880Z,14.18
2023-04-11T09:33:53.424Z,13.55
2023-04-11T09:36:23.721Z,12.15
2023-04-11T09:38:54.257Z,12.00
2023-04-11T09:41:36.200Z,14.10
2023-04-11T09:44:04.061Z,14.32
2023-04-11T09:46:31.574Z,13.38
2023-04-11T09:49:01.624Z,13.55
2023-04-11T09:51:36.564Z,14.20
2023-04-11T09:54:05.439Z,14.25
2023-04-11T09:56:36.695Z,12.98
2023-04-11T09:59:05.228Z,18.20
2023-04-11T10:01:33.361Z,11.80
2023-04-11T10:04:01.519Z,14.65
2023-04-11T10:06:45.734Z,13.55
2023-04-11T10:09:15.638Z,14.70
2023-04-11T10:11:44.337Z,12.02
2023-04-11T10:14:39.796Z,14.45
2023-04-11T10:17:14.889Z,15.48
2023-04-11T10:19:44.498Z,16.00
2023-04-11T10:22:40.677Z,14.52
2023-04-11T10:25:17.548Z,15.10
2023-04-11T10:28:04.031Z,13.82
2023-04-11T10:30:40.740Z,14.48
2023-04-11T10:33:13.198Z,14.80
2023-04-11T10:36:03.635Z,16.05
2023-04-11T10:38:37.575Z,16.98
2023-04-11T10:41:17.137Z,15.90
2023-04-11T10:43:45.951Z,16.17
2023-04-11T10:46:26.561Z,19.23
2023-04-11T10:49:01.976Z,14.82
2023-04-11T10:51:34.174Z,15.48
2023-04-11T10:56:52.613Z,15.10
2023-04-11T10:59:32.394Z,14.57
2023-04-11T11:02:01.666Z,15.60
2023-04-11T11:04:33.033Z,18.83
2023-04-11T11:07:03.494Z,18.47
2023-04-11T11:09:31.622Z,12.70
2023-04-11T11:12:16.201Z,13.55
2023-04-11T11:14:46.819Z,18.20
2023-04-11T11:17:16.107Z,16.13
2023-04-11T11:19:47.627Z,14.93
2023-04-11T11:22:25.992Z,12.25
2023-04-11T11:24:53.812Z,15.60
2023-04-11T11:27:23.078Z,16.10
2023-04-11T11:29:51.096Z,13.85
2023-04-11T11:32:29.570Z,15.65
2023-04-11T11:34:57.722Z,16.33
2023-04-11T11:37:25.874Z,16.52
2023-04-11T11:39:53.636Z,16.55
2023-04-11T11:42:21.248Z,16.35
2023-04-11T11:44:48.706Z,15.60
2023-04-11T11:47:16.332Z,15.63
2023-04-11T11:49:48.236Z,14.63
2023-04-11T11:52:51.347Z,16.20
2023-04-11T11:55:18.654Z,15.35
2023-04-11T11:57:46.977Z,17.85
2023-04-11T12:00:16.273Z,17.48
2023-04-11T12:02:44.681Z,14.43
2023-04-11T12:05:12.751Z,15.80
2023-04-11T12:07:40.612Z,17.35
2023-04-11T12:10:11.719Z,15.95
2023-04-11T12:12:43.976Z,15.25
2023-04-11T12:15:24.390Z,16.38
2023-04-11T12:17:53.546Z,13.68
2023-04-11T12:20:26.793Z,17.25
2023-04-11T12:22:55.433Z,18.98
2023-04-11T12:25:23.400Z,16.38
2023-04-11T12:27:50.877Z,18.13
2023-04-11T12:30:18.319Z,14.25
2023-04-11T12:32:45.795Z,14.73
2023-04-11T12:35:13.405Z,15.95
2023-04-11T12:37:41.268Z,17.67
2023-04-11T12:40:12.147Z,14.13
2023-04-11T12:42:49.544Z,16.00
2023-04-11T12:45:20.884Z,16.42
2023-04-11T12:47:48.309Z,17.27
2023-04-11T12:50:15.840Z,13.88
2023-04-11T12:52:43.351Z,16.40
2023-04-11T12:55:11.000Z,18.02
2023-04-11T12:57:38.486Z,12.52
2023-04-11T13:00:07.758Z,14.63
2023-04-11T13:02:42.221Z,15.35
2023-04-11T13:05:14.088Z,13.80
2023-04-11T13:07:44.710Z,14.25
2023-04-11T13:10:14.016Z,11.52
2023-04-11T13:12:44.574Z,12.65
2023-04-11T13:15:14.072Z,16.10
2023-04-11T13:17:41.659Z,18.55
2023-04-11T13:20:10.940Z,14.63
2023-04-11T13:22:39.827Z,11.50
2023-04-11T13:25:08.168Z,13.13
2023-04-11T13:27:36.355Z,12.43
2023-04-11T13:30:04.991Z,12.18
2023-04-11T13:32:32.551Z,12.10
2023-04-11T13:35:00.068Z,13.55
2023-04-11T13:37:27.532Z,14.73
2023-04-11T13:39:54.950Z,12.57
2023-04-11T13:42:22.602Z,13.07
2023-04-11T13:44:50.050Z,17.77
2023-04-11T13:47:17.436Z,14.75
2023-04-11T13:49:44.890Z,14.57
2023-04-11T13:52:12.301Z,11.32
2023-04-11T13:54:39.682Z,12.75
2023-04-11T13:57:09.535Z,13.02
2023-04-11T13:59:37.176Z,13.38
2023-04-11T14:02:04.703Z,11.48
2023-04-11T14:04:32.337Z,12.05
2023-04-11T14:06:59.899Z,8.73
2023-04-11T14:09:27.330Z,10.48
2023-04-11T14:11:54.779Z,12.10
2023-04-11T14:14:22.226Z,8.38
2023-04-11T14:16:50.384Z,7.85
2023-04-11T14:19:17.906Z,8.73
2023-04-11T14:21:45.261Z,15.85
2023-04-11T14:24:12.735Z,10.55
2023-04-11T14:26:40.126Z,10.18
2023-04-11T14:29:07.926Z,11.75
2023-04-11T14:31:36.130Z,11.77
2023-04-11T14:34:03.651Z,9.63
2023-04-11T14:36:31.805Z,9.52
2023-04-11T14:38:59.248Z,10.80
2023-04-11T14:41:26.639Z,14.85
2023-04-11T14:43:54.090Z,9.13
2023-04-11T14:46:21.734Z,10.27
2023-04-11T14:48:49.195Z,9.13
2023-04-11T14:51:16.569Z,11.50
2023-04-11T14:53:44.061Z,11.02
2023-04-11T14:56:11.490Z,10.05
2023-04-11T14:58:39.842Z,10.95
2023-04-11T15:01:07.709Z,9.80
2023-04-11T15:03:35.149Z,10.15
2023-04-11T15:06:03.092Z,9.50
2023-04-11T15:08:30.809Z,10.32
2023-04-11T15:10:58.198Z,12.70
2023-04-11T15:13:27.175Z,11.43
2023-04-11T15:15:58.510Z,10.57
2023-04-11T15:18:28.099Z,8.20
2023-04-11T15:20:57.335Z,9.57
2023-04-11T15:23:25.048Z,10.65
2023-04-11T15:26:03.444Z,12.70
2023-04-11T15:28:35.840Z,8.80
2023-04-11T15:33:34.054Z,9.60
2023-04-11T15:36:02.392Z,10.85
2023-04-11T15:38:29.910Z,11.68
2023-04-11T15:40:59.810Z,12.05
2023-04-11T15:43:27.552Z,13.23
2023-04-11T15:45:55.036Z,11.90
2023-04-11T15:48:23.200Z,11.90
2023-04-11T15:50:51.133Z,7.70
2023-04-11T15:53:18.575Z,10.68
2023-04-11T15:55:47.562Z,9.65
2023-04-11T15:58:15.174Z,9.82
2023-04-11T16:00:43.792Z,11.05
2023-04-11T16:03:11.696Z,19.08
2023-04-11T16:05:42.765Z,10.88
2023-04-11T16:08:10.318Z,11.48
2023-04-11T16:10:37.755Z,12.05
2023-04-11T16:13:05.407Z,9.60
2023-04-11T16:15:32.877Z,10.93
2023-04-11T16:18:00.268Z,11.45
2023-04-11T16:20:28.189Z,9.40
2023-04-11T16:22:56.026Z,10.13
2023-04-11T16:25:23.456Z,10.68
2023-04-11T16:27:51.475Z,9.52
2023-04-11T16:30:19.233Z,10.55
2023-04-11T16:32:46.768Z,8.77
2023-04-11T16:35:14.276Z,10.30
2023-04-11T16:37:41.720Z,8.95
2023-04-11T16:40:11.745Z,9.82
2023-04-11T16:42:40.019Z,11.60
2023-04-11T16:45:09.259Z,10.43
2023-04-11T16:47:36.829Z,11.73
2023-04-11T16:50:05.756Z,11.27
2023-04-11T16:52:33.335Z,8.38
2023-04-11T16:55:01.641Z,10.52
2023-04-11T16:57:29.057Z,9.10
2023-04-11T16:59:56.410Z,8.75
2023-04-11T17:02:24.372Z,10.30
2023-04-11T17:04:52.016Z,9.55
2023-04-11T17:07:19.424Z,7.43
2023-04-11T17:09:48.498Z,7.82
2023-04-11T17:12:16.380Z,17.08
2023-04-11T17:14:45.618Z,8.10
2023-04-11T17:17:13.056Z,7.68
2023-04-11T17:19:40.726Z,9.50
2023-04-11T17:22:08.129Z,9.65
2023-04-11T17:24:36.177Z,10.77
2023-04-11T17:27:03.870Z,9.68
2023-04-11T17:29:31.206Z,11.13
2023-04-11T17:31:58.557Z,9.10
2023-04-11T17:34:25.999Z,13.35
2023-04-11T17:36:54.535Z,8.85
2023-04-11T17:39:22.205Z,10.55
2023-04-11T17:41:49.588Z,16.63
2023-04-11T17:44:17.862Z,11.48
2023-04-11T17:46:45.631Z,10.52
2023-04-11T17:49:13.270Z,9.75
2023-04-11T17:51:48.802Z,9.60
2023-04-11T17:54:19.999Z,16.33
2023-04-11T17:56:47.338Z,8.13
2023-04-11T17:59:17.144Z,17.60
2023-04-11T18:01:46.624Z,11.35
2023-04-11T18:04:15.367Z,12.55
2023-04-11T18:06:42.865Z,14.13
2023-04-11T18:09:10.809Z,16.50
2023-04-11T18:11:38.217Z,15.02
2023-04-11T18:14:05.573Z,12.88
2023-04-11T18:16:33.155Z,16.55
2023-04-11T18:19:01.013Z,10.45
2023-04-11T18:21:28.360Z,12.00
2023-04-11T18:23:56.030Z,14.00
2023-04-11T18:26:23.726Z,22.45
2023-04-11T18:28:51.168Z,12.00
2023-04-11T18:31:18.576Z,17.33
2023-04-11T18:33:47.626Z,16.30
2023-04-11T18:36:15.644Z,24.08
2023-04-11T18:38:43.965Z,10.75
2023-04-11T18:41:11.365Z,14.05
2023-04-11T18:43:39.340Z,31.15
2023-04-11T18:46:07.800Z,40.47
2023-04-11T18:48:35.534Z,37.05
2023-04-11T18:51:04.907Z,35.63
2023-04-11T18:53:32.433Z,42.15
2023-04-11T18:56:03.569Z,24.05
2023-04-11T18:58:34.306Z,25.88
2023-04-11T19:01:13.996Z,19.73
2023-04-11T19:03:42.719Z,17.67
2023-04-11T19:06:11.569Z,19.75
2023-04-11T19:08:39.137Z,29.50
2023-04-11T19:11:06.581Z,30.90
2023-04-11T19:13:33.998Z,25.02
2023-04-11T19:16:01.650Z,27.15
2023-04-11T19:18:29.133Z,22.20
2023-04-11T19:20:56.563Z,20.90
2023-04-11T19:23:23.972Z,19.15
2023-04-11T19:25:51.737Z,22.30
2023-04-11T19:28:19.140Z,31.23
2023-04-11T19:30:47.899Z,23.52
2023-04-11T19:33:15.424Z,19.95
2023-04-11T19:35:42.802Z,21.52
2023-04-11T19:38:10.252Z,21.50
2023-04-11T19:40:37.667Z,22.95
2023-04-11T19:43:05.050Z,25.02
2023-04-11T19:45:32.778Z,27.10
2023-04-11T19:48:00.427Z,26.90
2023-04-11T19:50:28.020Z,28.10
2023-04-11T19:52:58.700Z,25.10
2023-04-11T19:55:27.388Z,20.67
2023-04-11T19:57:55.055Z,22.45
2023-04-11T20:00:22.588Z,19.33
2023-04-11T20:02:50.097Z,24.67
2023-04-11T20:05:19.331Z,21.17
2023-04-11T20:07:46.940Z,18.42
2023-04-11T20:10:15.873Z,17.65
2023-04-11T20:12:43.348Z,17.85
2023-04-11T20:15:11.325Z,17.10
2023-04-11T20:17:39.029Z,19.05
2023-04-11T20:20:08.894Z,18.73
2023-04-11T20:22:38.309Z,14.95
2023-04-11T20:25:11.858Z,18.15
2023-04-11T20:27:40.683Z,14.90
2023-04-11T20:30:10.726Z,17.00
2023-04-11T20:32:39.434Z,16.23
2023-04-11T20:35:12.206Z,17.55
2023-04-11T20:37:41.371Z,17.77
2023-04-11T20:40:13.137Z,17.40
2023-04-11T20:42:42.595Z,15.70
2023-04-11T20:45:12.529Z,19.48
2023-04-11T20:47:41.362Z,15.27
2023-04-11T20:50:10.672Z,16.27
2023-04-11T20:52:38.621Z,17.25
2023-04-11T20:55:06.352Z,16.00
2023-04-11T20:57:33.799Z,15.52
2023-04-11T21:00:02.414Z,16.42
2023-04-11T21:02:30.001Z,17.08
2023-04-11T21:04:57.505Z,17.17
2023-04-11T21:07:24.877Z,21.00
2023-04-11T21:09:52.343Z,16.08
2023-04-11T21:12:19.778Z,22.08
2023-04-11T21:14:47.350Z,23.67
2023-04-11T21:17:14.701Z,22.17
2023-04-11T21:19:42.358Z,22.90
2023-04-11T21:22:09.794Z,29.08
2023-04-11T21:24:37.232Z,21.80
2023-04-11T21:27:04.684Z,22.15
2023-04-11T21:29:32.117Z,23.40
2023-04-11T21:31:59.565Z,30.13
2023-04-11T21:34:27.173Z,27.40
2023-04-11T21:36:54.586Z,23.98
2023-04-11T21:39:21.971Z,23.92
2023-04-11T21:41:49.361Z,23.70
2023-04-11T21:44:16.745Z,24.58
2023-04-11T21:46:44.791Z,23.50
2023-04-11T21:49:12.257Z,24.67
2023-04-11T21:51:39.644Z,22.17
2023-04-11T21:54:07.013Z,22.90
2023-04-11T21:56:34.406Z,25.23
2023-04-11T21:59:01.752Z,24.33
2023-04-11T22:01:29.324Z,22.92
2023-04-11T22:03:58.944Z,24.40
2023-04-11T22:06:30.230Z,23.65
2023-04-11T22:08:58.280Z,23.88
2023-04-11T22:11:25.695Z,22.80
2023-04-11T22:13:53.164Z,19.67
2023-04-11T22:16:26.346Z,21.92
2023-04-11T22:18:54.479Z,21.65
2023-04-11T22:21:21.884Z,21.50
2023-04-11T22:23:54.760Z,25.15
2023-04-11T22:26:26.730Z,25.50
2023-04-11T22:28:55.143Z,24.60
2023-04-11T22:31:22.860Z,23.63
2023-04-11T22:33:50.265Z,22.52
2023-04-11T22:36:17.748Z,24.15
2023-04-11T22:38:45.626Z,22.60
2023-04-11T22:41:16.795Z,23.38
2023-04-11T22:43:44.834Z,23.50
2023-04-11T22:46:13.284Z,20.63
2023-04-11T22:48:42.249Z,22.00
2023-04-11T22:51:09.591Z,25.52
2023-04-11T22:53:42.032Z,22.33
2023-04-11T22:56:12.772Z,21.67
2023-04-11T22:58:40.332Z,22.52
2023-04-11T23:01:16.630Z,23.30
2023-04-11T23:03:44.141Z,23.00
2023-04-11T23:06:11.746Z,25.02
2023-04-11T23:08:39.058Z,22.83
2023-04-11T23:11:07.295Z,24.02
2023-04-11T23:13:34.666Z,20.67
2023-04-11T23:16:02.451Z,25.35
2023-04-11T23:18:29.822Z,27.23
2023-04-11T23:20:57.199Z,23.23
2023-04-11T23:23:24.582Z,24.38
2023-04-11T23:25:52.345Z,21.83
2023-04-11T23:28:19.773Z,23.35
2023-04-11T23:30:47.129Z,20.63
2023-04-11T23:33:16.197Z,19.90
2023-04-11T23:35:43.654Z,21.27
2023-04-11T23:38:11.012Z,23.73
2023-04-11T23:40:38.474Z,20.85
2023-04-11T23:43:05.879Z,21.13
2023-04-11T23:45:33.577Z,22.95
2023-04-11T23:48:01.147Z,22.95
2023-04-11T23:50:28.660Z,20.15
2023-04-11T23:52:56.058Z,21.05
2023-04-11T23:55:23.515Z,21.80
2023-04-11T23:57:50.944Z,22.25
